Terminal Aerodrome Forecast
Issued by NWS Jackson, MS

Home | Current Version | Previous Version | Text Only | Print | Product List | Glossary On
Versions: 1 2 3 4 5 6 7 8 9 10 11 12 13 14 15 16
748
FTUS44 KMEG 300329 AAA
TAFTUP
TAF AMD
KTUP 300329Z 3003/3024 13012G20KT P6SM SCT250
     FM300800 16016G22KT P6SM BKN025 BKN250
     FM301600 17018G28KT P6SM SHRA BKN040
      TEMPO 3017/3020 2SM TSRA BKN015CB=

USA.gov is the U.S. government's official web portal to all federal, state and local government web resources and services.